createdAt,value
2023-03-11T00:00:52.147Z,3.36
2023-03-11T00:01:52.159Z,3.35
2023-03-11T00:02:54.549Z,3.32
2023-03-11T00:03:52.543Z,3.3
2023-03-11T00:04:52.257Z,3.32
2023-03-11T00:05:52.113Z,3.33
2023-03-11T00:06:52.100Z,3.34
2023-03-11T00:07:52.532Z,3.36
2023-03-11T00:08:52.195Z,3.38
2023-03-11T00:09:52.110Z,3.42
2023-03-11T00:10:52.116Z,3.39
2023-03-11T00:11:52.121Z,3.43
2023-03-11T00:12:52.137Z,3.47
2023-03-11T00:13:57.011Z,3.49
2023-03-11T00:14:52.191Z,3.53
2023-03-11T00:15:52.113Z,3.53
2023-03-11T00:16:52.242Z,3.52
2023-03-11T00:17:52.128Z,3.48
2023-03-11T00:18:52.536Z,3.47
2023-03-11T00:19:52.214Z,3.5
2023-03-11T00:20:52.223Z,3.51
2023-03-11T00:21:52.146Z,3.48
2023-03-11T00:22:52.530Z,3.48
2023-03-11T00:23:52.543Z,3.48
2023-03-11T00:24:54.489Z,3.47
2023-03-11T00:25:52.213Z,3.47
2023-03-11T00:26:52.115Z,3.49
2023-03-11T00:27:52.235Z,3.47
2023-03-11T00:28:52.232Z,3.44
2023-03-11T00:29:52.125Z,3.45
2023-03-11T00:30:52.143Z,3.44
2023-03-11T00:31:52.111Z,3.44
2023-03-11T00:32:52.223Z,3.43
2023-03-11T00:33:52.524Z,3.39
2023-03-11T00:34:52.226Z,3.37
2023-03-11T00:35:54.602Z,3.34
2023-03-11T00:36:52.105Z,3.33
2023-03-11T00:37:52.514Z,3.31
2023-03-11T00:38:52.553Z,3.24
2023-03-11T00:39:52.130Z,3.23
2023-03-11T00:40:52.136Z,3.19
2023-03-11T00:41:52.121Z,3.19
2023-03-11T00:42:52.130Z,3.18
2023-03-11T00:43:52.531Z,3.17
2023-03-11T00:44:52.121Z,3.17
2023-03-11T00:45:52.177Z,3.15
2023-03-11T00:46:54.540Z,3.11
2023-03-11T00:47:52.132Z,3.1
2023-03-11T00:48:52.513Z,3.09
2023-03-11T00:49:52.198Z,3.05
2023-03-11T00:50:52.123Z,3.04
2023-03-11T00:51:52.132Z,3.04
2023-03-11T00:52:52.523Z,2.98
2023-03-11T00:53:52.534Z,2.98
2023-03-11T00:54:52.234Z,2.96
2023-03-11T00:55:52.249Z,2.91
2023-03-11T00:56:52.204Z,2.87
2023-03-11T00:57:54.495Z,2.81
2023-03-11T00:58:52.542Z,2.78
2023-03-11T00:59:52.233Z,2.78
2023-03-11T01:00:52.123Z,2.77
2023-03-11T01:01:52.125Z,2.75
2023-03-11T01:02:52.108Z,2.78
2023-03-11T01:03:52.547Z,2.77
2023-03-11T01:04:52.214Z,2.76
2023-03-11T01:05:52.126Z,2.8
2023-03-11T01:06:52.123Z,2.83
2023-03-11T01:07:52.537Z,2.84
2023-03-11T01:08:57.012Z,2.82
2023-03-11T01:09:52.137Z,2.8
2023-03-11T01:10:52.166Z,2.78
2023-03-11T01:11:52.119Z,2.78
2023-03-11T01:12:52.165Z,2.8
2023-03-11T01:13:52.527Z,2.85
2023-03-11T01:14:52.106Z,2.85
2023-03-11T01:15:52.120Z,2.87
2023-03-11T01:16:52.123Z,2.9
2023-03-11T01:17:52.090Z,2.91
2023-03-11T01:18:52.549Z,2.9
2023-03-11T01:19:54.490Z,2.93
2023-03-11T01:20:52.287Z,2.95
2023-03-11T01:21:52.122Z,2.95
2023-03-11T01:22:52.520Z,2.96
2023-03-11T01:23:52.528Z,2.93
2023-03-11T01:24:52.133Z,2.95
2023-03-11T01:25:52.120Z,2.99
2023-03-11T01:26:52.193Z,2.96
2023-03-11T01:27:52.131Z,2.98
2023-03-11T01:28:52.522Z,3
2023-03-11T01:29:52.130Z,2.97
2023-03-11T01:30:54.549Z,2.96
2023-03-11T01:31:52.126Z,2.93
2023-03-11T01:32:52.185Z,2.91
2023-03-11T01:33:52.502Z,2.89
2023-03-11T01:34:52.123Z,2.88
2023-03-11T01:35:52.190Z,2.88
2023-03-11T01:36:52.100Z,2.81
2023-03-11T01:37:52.526Z,2.79
2023-03-11T01:38:52.534Z,2.78
2023-03-11T01:39:52.106Z,2.79
2023-03-11T01:40:52.144Z,2.77
2023-03-11T01:41:54.484Z,2.79
2023-03-11T01:42:52.107Z,2.81
2023-03-11T01:43:52.522Z,2.8
2023-03-11T01:44:52.123Z,2.85
2023-03-11T01:45:52.110Z,2.85
2023-03-11T01:46:52.262Z,2.84
2023-03-11T01:47:52.100Z,2.84
2023-03-11T01:48:52.533Z,2.82
2023-03-11T01:49:52.113Z,2.8
2023-03-11T01:50:52.119Z,2.79
2023-03-11T01:51:52.132Z,2.77
2023-03-11T01:52:56.953Z,2.74
2023-03-11T01:53:52.494Z,2.73
2023-03-11T01:54:52.251Z,2.71
2023-03-11T01:55:52.106Z,2.66
2023-03-11T01:56:52.100Z,2.63
2023-03-11T01:57:52.092Z,2.57
2023-03-11T01:58:52.231Z,2.5
2023-03-11T01:59:52.128Z,2.46
2023-03-11T02:00:52.182Z,2.42
2023-03-11T02:01:52.149Z,2.4
2023-03-11T02:02:52.154Z,2.39
2023-03-11T02:03:57.017Z,2.44
2023-03-11T02:04:52.136Z,2.45
2023-03-11T02:05:52.119Z,2.43
2023-03-11T02:06:54.076Z,2.4
2023-03-11T02:07:52.528Z,2.36
2023-03-11T02:08:52.533Z,2.31
2023-03-11T02:09:52.120Z,2.29
2023-03-11T02:10:52.104Z,2.27
2023-03-11T02:11:52.146Z,2.25
2023-03-11T02:12:52.124Z,2.25
2023-03-11T02:13:52.534Z,2.26
2023-03-11T02:14:54.435Z,2.32
2023-03-11T02:15:52.182Z,2.33
2023-03-11T02:16:52.136Z,2.34
2023-03-11T02:17:52.116Z,2.39
2023-03-11T02:18:52.531Z,2.42
2023-03-11T02:19:52.126Z,2.46
2023-03-11T02:20:52.249Z,2.49
2023-03-11T02:21:52.147Z,2.51
2023-03-11T02:22:52.508Z,2.55
2023-03-11T02:23:52.511Z,2.6
2023-03-11T02:24:52.124Z,2.59
2023-03-11T02:25:54.594Z,2.6
2023-03-11T02:26:52.124Z,2.61
2023-03-11T02:27:52.108Z,2.66
2023-03-11T02:28:52.521Z,2.7
2023-03-11T02:29:52.205Z,2.72
2023-03-11T02:30:52.266Z,2.71
2023-03-11T02:31:52.223Z,2.67
2023-03-11T02:32:52.143Z,2.66
2023-03-11T02:33:52.531Z,2.66
2023-03-11T02:34:52.148Z,2.67
2023-03-11T02:35:52.162Z,2.61
2023-03-11T02:36:54.493Z,2.53
2023-03-11T02:37:52.519Z,2.45
2023-03-11T02:38:52.514Z,2.39
2023-03-11T02:39:52.130Z,2.3
2023-03-11T02:40:52.119Z,2.24
2023-03-11T02:41:52.120Z,2.21
2023-03-11T02:42:52.193Z,2.17
2023-03-11T02:43:52.527Z,2.15
2023-03-11T02:44:52.086Z,2.14
2023-03-11T02:45:52.125Z,2.12
2023-03-11T02:46:52.138Z,2.09
2023-03-11T02:47:54.610Z,2.08
2023-03-11T02:48:52.517Z,2.06
2023-03-11T02:49:52.125Z,2.06
2023-03-11T02:50:52.138Z,2.07
2023-03-11T02:51:52.121Z,2.06
2023-03-11T02:52:52.539Z,2.05
2023-03-11T02:53:52.531Z,2.06
2023-03-11T02:54:52.226Z,2.06
2023-03-11T02:55:52.238Z,2.06
2023-03-11T02:56:52.116Z,2.02
2023-03-11T02:57:52.105Z,2
2023-03-11T02:58:56.970Z,1.98
2023-03-11T02:59:52.095Z,1.96
2023-03-11T03:00:52.160Z,1.96
2023-03-11T03:01:52.192Z,1.97
2023-03-11T03:02:52.120Z,1.96
2023-03-11T03:03:52.619Z,1.95
2023-03-11T03:04:52.102Z,1.95
2023-03-11T03:05:52.119Z,1.94
2023-03-11T03:06:52.120Z,1.93
2023-03-11T03:07:52.515Z,1.92
2023-03-11T03:08:52.511Z,1.89
2023-03-11T03:09:54.559Z,1.88
2023-03-11T03:10:52.118Z,1.86
2023-03-11T03:11:52.112Z,1.87
2023-03-11T03:12:52.121Z,1.86
2023-03-11T03:13:52.509Z,1.85
2023-03-11T03:14:52.141Z,1.87
2023-03-11T03:15:52.112Z,1.88
2023-03-11T03:16:52.282Z,1.87
2023-03-11T03:17:52.136Z,1.88
2023-03-11T03:18:52.508Z,1.87
2023-03-11T03:19:52.137Z,1.87
2023-03-11T03:20:54.486Z,1.88
2023-03-11T03:21:52.120Z,1.88
2023-03-11T03:22:52.514Z,1.92
2023-03-11T03:23:52.512Z,1.95
2023-03-11T03:24:52.111Z,1.98
2023-03-11T03:25:52.091Z,1.99
2023-03-11T03:26:52.100Z,1.99
2023-03-11T03:27:52.122Z,1.97
2023-03-11T03:28:52.529Z,1.97
2023-03-11T03:29:52.250Z,1.99
2023-03-11T03:30:52.241Z,1.97
2023-03-11T03:31:54.602Z,1.97
2023-03-11T03:32:52.284Z,1.97
2023-03-11T03:33:52.519Z,1.95
2023-03-11T03:34:52.124Z,1.93
2023-03-11T03:35:52.145Z,1.91
2023-03-11T03:36:52.237Z,1.93
2023-03-11T03:37:52.533Z,1.92
2023-03-11T03:38:52.532Z,1.91
2023-03-11T03:39:52.129Z,1.93
2023-03-11T03:40:52.111Z,1.94
2023-03-11T03:41:52.119Z,1.92
2023-03-11T03:42:54.482Z,1.9
2023-03-11T03:43:52.517Z,1.88
2023-03-11T03:44:52.107Z,1.89
2023-03-11T03:45:52.184Z,1.91
2023-03-11T03:46:52.106Z,1.91
2023-03-11T03:47:52.128Z,1.92
2023-03-11T03:48:52.516Z,1.91
2023-03-11T03:49:52.122Z,1.93
2023-03-11T03:50:52.109Z,1.93
2023-03-11T03:51:52.252Z,1.95
2023-03-11T03:52:52.538Z,1.92
2023-03-11T03:53:56.937Z,1.92
2023-03-11T03:54:52.130Z,1.94
2023-03-11T03:55:52.122Z,1.95
2023-03-11T03:56:52.120Z,1.95
2023-03-11T03:57:52.131Z,1.95
2023-03-11T03:58:52.512Z,1.93
2023-03-11T03:59:52.120Z,1.96
2023-03-11T04:00:52.134Z,1.99
2023-03-11T04:01:52.142Z,1.97
2023-03-11T04:02:52.113Z,2
2023-03-11T04:03:52.528Z,2.02
2023-03-11T04:04:54.487Z,2.04
2023-03-11T04:05:52.100Z,2.1
2023-03-11T04:06:52.135Z,2.12
2023-03-11T04:07:52.531Z,2.12
2023-03-11T04:08:52.526Z,2.13
2023-03-11T04:09:52.130Z,2.14
2023-03-11T04:10:52.218Z,2.14
2023-03-11T04:11:52.116Z,2.15
2023-03-11T04:12:52.118Z,2.13
2023-03-11T04:13:52.545Z,2.12
2023-03-11T04:14:52.218Z,2.11
2023-03-11T04:15:54.468Z,2.07
2023-03-11T04:16:52.300Z,2.06
2023-03-11T04:17:52.243Z,2.03
2023-03-11T04:18:52.522Z,2.03
2023-03-11T04:19:52.110Z,2.04
2023-03-11T04:20:52.128Z,2.05
2023-03-11T04:21:52.140Z,2.08
2023-03-11T04:22:52.529Z,2.1
2023-03-11T04:23:52.546Z,2.11
2023-03-11T04:24:52.125Z,2.12
2023-03-11T04:25:52.094Z,2.1
2023-03-11T04:26:54.543Z,2.13
2023-03-11T04:27:52.126Z,2.13
2023-03-11T04:28:53.677Z,2.17
2023-03-11T04:29:52.129Z,2.19
2023-03-11T04:30:52.296Z,2.22
2023-03-11T04:31:52.129Z,2.25
2023-03-11T04:32:52.293Z,2.28
2023-03-11T04:33:52.529Z,2.3
2023-03-11T04:34:52.109Z,2.35
2023-03-11T04:35:52.402Z,2.36
2023-03-11T04:36:52.262Z,2.39
2023-03-11T04:37:57.017Z,2.42
2023-03-11T04:38:52.512Z,2.44
2023-03-11T04:39:52.144Z,2.44
2023-03-11T04:40:52.134Z,2.49
2023-03-11T04:41:52.131Z,2.55
2023-03-11T04:42:52.102Z,2.59
2023-03-11T04:43:52.523Z,2.65
2023-03-11T04:44:52.246Z,2.67
2023-03-11T04:45:52.109Z,2.69
2023-03-11T04:46:52.123Z,2.69
2023-03-11T04:47:52.107Z,2.7
2023-03-11T04:48:56.971Z,2.75
2023-03-11T04:49:52.254Z,2.77
2023-03-11T04:50:52.102Z,2.77
2023-03-11T04:51:52.100Z,2.8
2023-03-11T04:52:52.513Z,2.78
2023-03-11T04:53:52.529Z,2.72
2023-03-11T04:54:52.096Z,2.64
2023-03-11T04:55:52.134Z,2.62
2023-03-11T04:56:52.118Z,2.59
2023-03-11T04:57:52.188Z,2.54
2023-03-11T04:58:52.523Z,2.5
2023-03-11T04:59:54.487Z,2.49
2023-03-11T05:00:52.107Z,2.52
2023-03-11T05:01:52.300Z,2.51
2023-03-11T05:02:52.191Z,2.49
2023-03-11T05:03:52.527Z,2.48
2023-03-11T05:04:52.278Z,2.48
2023-03-11T05:05:52.104Z,2.45
2023-03-11T05:06:52.100Z,2.45
2023-03-11T05:07:52.524Z,2.44
2023-03-11T05:08:52.510Z,2.39
2023-03-11T05:09:52.106Z,2.36
2023-03-11T05:10:54.542Z,2.35
2023-03-11T05:11:52.114Z,2.32
2023-03-11T05:12:52.109Z,2.3
2023-03-11T05:13:52.526Z,2.26
2023-03-11T05:14:52.173Z,2.23
2023-03-11T05:15:52.136Z,2.21
2023-03-11T05:16:52.124Z,2.19
2023-03-11T05:17:52.103Z,2.17
2023-03-11T05:18:52.532Z,2.19
2023-03-11T05:19:52.137Z,2.18
2023-03-11T05:20:52.244Z,2.2
2023-03-11T05:21:54.467Z,2.22
2023-03-11T05:22:52.508Z,2.26
2023-03-11T05:23:52.502Z,2.35
2023-03-11T05:24:52.103Z,2.42
2023-03-11T05:25:52.104Z,2.47
2023-03-11T05:26:52.098Z,2.55
2023-03-11T05:27:52.240Z,2.61
2023-03-11T05:28:52.514Z,2.69
2023-03-11T05:29:52.107Z,2.71
2023-03-11T05:30:52.156Z,2.72
2023-03-11T05:31:52.133Z,2.78
2023-03-11T05:32:54.617Z,2.8
2023-03-11T05:33:52.773Z,2.77
2023-03-11T05:34:52.127Z,2.77
2023-03-11T05:35:52.279Z,2.74
2023-03-11T05:36:52.129Z,2.74
2023-03-11T05:37:52.595Z,2.76
2023-03-11T05:38:52.508Z,2.77
2023-03-11T05:39:52.125Z,2.8
2023-03-11T05:40:52.131Z,2.83
2023-03-11T05:41:52.127Z,2.88
2023-03-11T05:42:52.120Z,2.91
2023-03-11T05:43:54.836Z,2.94
2023-03-11T05:44:52.197Z,2.96
2023-03-11T05:45:52.105Z,2.94
2023-03-11T05:46:52.226Z,2.94
2023-03-11T05:47:52.135Z,2.94
2023-03-11T05:48:52.512Z,2.92
2023-03-11T05:49:52.143Z,2.88
2023-03-11T05:50:52.245Z,2.86
2023-03-11T05:51:52.137Z,2.88
2023-03-11T05:52:52.277Z,2.82
2023-03-11T05:53:52.528Z,2.75
2023-03-11T05:54:54.500Z,2.71
2023-03-11T05:55:52.142Z,2.71
2023-03-11T05:56:52.127Z,2.74
2023-03-11T05:57:52.289Z,2.71
2023-03-11T05:58:52.534Z,2.74
2023-03-11T05:59:52.105Z,2.74
2023-03-11T06:00:52.339Z,2.77
2023-03-11T06:01:52.203Z,2.79
2023-03-11T06:02:52.241Z,2.8
2023-03-11T06:03:52.604Z,2.83
2023-03-11T06:04:52.305Z,2.82
2023-03-11T06:05:54.453Z,2.82
2023-03-11T06:06:52.136Z,2.85
2023-03-11T06:07:52.501Z,2.85
2023-03-11T06:08:52.201Z,2.89
2023-03-11T06:09:52.100Z,2.92
2023-03-11T06:10:52.128Z,2.95
2023-03-11T06:11:52.077Z,2.96
2023-03-11T06:12:52.130Z,2.97
2023-03-11T06:13:52.518Z,3.02
2023-03-11T06:14:52.147Z,3.12
2023-03-11T06:15:52.182Z,3.18
2023-03-11T06:16:54.535Z,3.21
2023-03-11T06:17:52.110Z,3.25
2023-03-11T06:18:52.511Z,3.26
2023-03-11T06:19:52.116Z,3.25
2023-03-11T06:20:52.105Z,3.25
2023-03-11T06:21:52.248Z,3.28
2023-03-11T06:22:52.534Z,3.33
2023-03-11T06:23:52.517Z,3.34
2023-03-11T06:24:52.103Z,3.32
2023-03-11T06:25:52.284Z,3.28
2023-03-11T06:26:52.118Z,3.31
2023-03-11T06:27:54.519Z,3.33
2023-03-11T06:28:52.528Z,3.4
2023-03-11T06:29:52.096Z,3.44
2023-03-11T06:30:52.106Z,3.42
2023-03-11T06:31:52.163Z,3.39
2023-03-11T06:32:52.142Z,3.39
2023-03-11T06:33:52.510Z,3.42
2023-03-11T06:34:52.133Z,3.37
2023-03-11T06:35:52.164Z,3.33
2023-03-11T06:36:52.107Z,3.36
2023-03-11T06:37:52.497Z,3.4
2023-03-11T06:38:57.085Z,3.43
2023-03-11T06:39:52.122Z,3.45
2023-03-11T06:40:52.119Z,3.48
2023-03-11T06:41:52.250Z,3.51
2023-03-11T06:42:52.104Z,3.52
2023-03-11T06:43:52.520Z,3.55
2023-03-11T06:44:52.081Z,3.59
2023-03-11T06:45:52.129Z,3.66
2023-03-11T06:46:52.070Z,3.7
2023-03-11T06:47:52.122Z,3.7
2023-03-11T06:48:52.343Z,3.75
2023-03-11T06:49:54.494Z,3.79
2023-03-11T06:50:52.115Z,3.83
2023-03-11T06:51:52.118Z,3.84
2023-03-11T06:52:52.539Z,3.88
2023-03-11T06:53:52.569Z,3.9
2023-03-11T06:54:52.124Z,3.92
2023-03-11T06:55:52.120Z,3.93
2023-03-11T06:56:52.237Z,3.93
2023-03-11T06:57:52.122Z,3.99
2023-03-11T06:58:52.529Z,4.02
2023-03-11T06:59:52.142Z,4.08
2023-03-11T07:00:54.435Z,4.16
2023-03-11T07:01:52.221Z,4.23
2023-03-11T07:02:52.111Z,4.25
2023-03-11T07:03:52.569Z,4.31
2023-03-11T07:04:52.125Z,4.36
2023-03-11T07:05:52.106Z,4.32
2023-03-11T07:06:52.125Z,4.29
2023-03-11T07:07:52.530Z,4.29
2023-03-11T07:08:52.649Z,4.31
2023-03-11T07:09:52.190Z,4.31
2023-03-11T07:10:52.117Z,4.25
2023-03-11T07:11:54.576Z,4.23
2023-03-11T07:12:52.293Z,4.16
2023-03-11T07:13:52.510Z,4.15
2023-03-11T07:14:52.115Z,4.04
2023-03-11T07:15:52.109Z,3.94
2023-03-11T07:16:52.201Z,3.89
2023-03-11T07:17:52.137Z,3.94
2023-03-11T07:18:52.531Z,3.95
2023-03-11T07:19:52.143Z,3.94
2023-03-11T07:20:52.269Z,3.97
2023-03-11T07:21:52.222Z,4
2023-03-11T07:22:56.979Z,4.02
2023-03-11T07:23:52.591Z,4.06
2023-03-11T07:24:52.118Z,4.16
2023-03-11T07:25:52.131Z,4.23
2023-03-11T07:26:52.108Z,4.24
2023-03-11T07:27:52.122Z,4.18
2023-03-11T07:28:52.515Z,4.17
2023-03-11T07:29:52.266Z,4.13
2023-03-11T07:30:52.197Z,4.07
2023-03-11T07:31:52.297Z,3.99
2023-03-11T07:32:52.327Z,4.02
2023-03-11T07:33:56.972Z,4.02
2023-03-11T07:34:52.114Z,3.99
2023-03-11T07:35:52.201Z,4.01
2023-03-11T07:36:52.117Z,3.99
2023-03-11T07:37:52.521Z,3.98
2023-03-11T07:38:52.512Z,3.91
2023-03-11T07:39:52.108Z,3.83
2023-03-11T07:40:52.088Z,3.74
2023-03-11T07:41:52.105Z,3.76
2023-03-11T07:42:52.124Z,3.86
2023-03-11T07:43:52.531Z,3.88
2023-03-11T07:44:54.475Z,3.94
2023-03-11T07:45:52.260Z,3.97
2023-03-11T07:46:52.132Z,4.08
2023-03-11T07:47:52.121Z,4.26
2023-03-11T07:48:52.512Z,4.36
2023-03-11T07:49:52.106Z,4.42
2023-03-11T07:50:52.149Z,4.4
2023-03-11T07:51:52.122Z,4.53
2023-03-11T07:52:52.525Z,4.69
2023-03-11T07:53:52.535Z,4.85
2023-03-11T07:54:52.115Z,4.93
2023-03-11T07:55:54.468Z,5.03
2023-03-11T07:56:52.121Z,5.04
2023-03-11T07:57:52.120Z,5.04
2023-03-11T07:58:52.500Z,4.98
2023-03-11T07:59:52.109Z,4.97
2023-03-11T08:00:52.113Z,4.99
2023-03-11T08:01:52.112Z,4.99
2023-03-11T08:02:52.140Z,5.02
2023-03-11T08:03:52.593Z,5.05
2023-03-11T08:04:52.087Z,5.02
2023-03-11T08:05:52.112Z,4.95
2023-03-11T08:06:54.479Z,4.92
2023-03-11T08:07:52.508Z,4.86
2023-03-11T08:08:52.517Z,4.86
2023-03-11T08:09:52.100Z,4.94
2023-03-11T08:10:52.109Z,5.04
2023-03-11T08:11:52.128Z,5.06
2023-03-11T08:12:52.176Z,5.12
2023-03-11T08:13:52.200Z,5.18
2023-03-11T08:14:52.126Z,5.22
2023-03-11T08:15:52.114Z,5.24
2023-03-11T08:16:52.129Z,5.26
2023-03-11T08:17:54.475Z,5.29
2023-03-11T08:18:52.501Z,5.35
2023-03-11T08:19:52.237Z,5.37
2023-03-11T08:20:52.108Z,5.32
2023-03-11T08:21:52.116Z,5.28
2023-03-11T08:22:58.183Z,5.2
2023-03-11T08:23:52.523Z,5.11
2023-03-11T08:24:52.149Z,5.03
2023-03-11T08:25:52.110Z,4.9
2023-03-11T08:26:52.107Z,4.76
2023-03-11T08:27:52.090Z,4.58
2023-03-11T08:28:56.946Z,4.51
2023-03-11T08:29:52.192Z,4.52
2023-03-11T08:30:52.165Z,4.65
2023-03-11T08:31:52.085Z,4.79
2023-03-11T08:32:52.190Z,4.84
2023-03-11T08:33:52.536Z,4.95
2023-03-11T08:34:52.256Z,5.07
2023-03-11T08:35:52.154Z,5.11
2023-03-11T08:36:52.120Z,5.09
2023-03-11T08:37:52.523Z,5.1
2023-03-11T08:38:52.529Z,5.15
2023-03-11T08:39:54.489Z,5.13
2023-03-11T08:40:52.106Z,5.09
2023-03-11T08:41:52.124Z,5.16
2023-03-11T08:42:52.188Z,5.32
2023-03-11T08:43:52.130Z,5.59
2023-03-11T08:44:52.123Z,5.88
2023-03-11T08:45:52.132Z,6.19
2023-03-11T08:46:52.148Z,6.6
2023-03-11T08:47:52.127Z,6.91
2023-03-11T08:48:52.528Z,7
2023-03-11T08:49:52.118Z,7.28
2023-03-11T08:50:54.906Z,7.39
2023-03-11T08:51:52.115Z,7.42
2023-03-11T08:52:52.506Z,7.47
2023-03-11T08:53:52.253Z,7.39
2023-03-11T08:54:52.104Z,7.37
2023-03-11T08:55:52.137Z,7.62
2023-03-11T08:56:52.116Z,7.82
2023-03-11T08:57:52.103Z,7.55
2023-03-11T08:58:52.531Z,7.48
2023-03-11T08:59:52.232Z,7.54
2023-03-11T09:00:52.143Z,7.47
2023-03-11T09:01:54.474Z,7.27
2023-03-11T09:02:52.334Z,7.06
2023-03-11T09:03:52.544Z,6.99
2023-03-11T09:04:52.116Z,6.93
2023-03-11T09:05:52.247Z,6.92
2023-03-11T09:06:52.249Z,6.95
2023-03-11T09:07:52.510Z,6.99
2023-03-11T09:08:52.536Z,7.14
2023-03-11T09:09:52.214Z,7.37
2023-03-11T09:10:52.098Z,7.54
2023-03-11T09:11:52.136Z,7.48
2023-03-11T09:12:54.426Z,7.43
2023-03-11T09:13:52.524Z,7.34
2023-03-11T09:14:52.108Z,7.11
2023-03-11T09:15:52.154Z,6.94
2023-03-11T09:16:52.237Z,6.58
2023-03-11T09:17:52.152Z,6.38
2023-03-11T09:18:52.550Z,6.3
2023-03-11T09:19:52.102Z,6.26
2023-03-11T09:20:52.126Z,6.19
2023-03-11T09:21:52.116Z,6.19
2023-03-11T09:22:52.159Z,6
2023-03-11T09:23:57.073Z,5.96
2023-03-11T09:24:52.123Z,5.78
2023-03-11T09:25:52.114Z,5.6
2023-03-11T09:26:52.182Z,5.47
2023-03-11T09:27:52.119Z,5.28
2023-03-11T09:28:52.614Z,5.08
2023-03-11T09:29:52.108Z,4.98
2023-03-11T09:30:52.123Z,4.95
2023-03-11T09:31:52.158Z,4.87
2023-03-11T09:32:52.139Z,4.94
2023-03-11T09:33:52.189Z,5.07
2023-03-11T09:34:54.494Z,5.18
2023-03-11T09:35:52.193Z,5.31
2023-03-11T09:36:52.124Z,5.42
2023-03-11T09:37:52.672Z,5.54
2023-03-11T09:38:52.227Z,5.57
2023-03-11T09:39:52.089Z,5.73
2023-03-11T09:40:52.278Z,6
2023-03-11T09:41:58.490Z,6.07
2023-03-11T09:42:52.123Z,6.27
2023-03-11T09:43:52.520Z,6.49
2023-03-11T09:44:52.104Z,6.49
2023-03-11T09:45:54.599Z,6.43
2023-03-11T09:46:52.222Z,6.63
2023-03-11T09:47:52.103Z,6.78
2023-03-11T09:48:52.260Z,6.89
2023-03-11T09:49:52.202Z,6.95
2023-03-11T09:50:52.151Z,6.9
2023-03-11T09:51:52.135Z,7.03
2023-03-11T09:52:52.158Z,7.04
2023-03-11T09:53:52.182Z,6.54
2023-03-11T09:54:52.107Z,6.27
2023-03-11T09:55:52.139Z,6.08
2023-03-11T09:56:54.452Z,5.99
2023-03-11T09:57:52.118Z,6.07
2023-03-11T09:58:52.542Z,6.19
2023-03-11T09:59:52.119Z,6.25
2023-03-11T10:00:52.147Z,6.31
2023-03-11T10:01:52.187Z,6.43
2023-03-11T10:02:52.229Z,6.57
2023-03-11T10:03:52.520Z,6.74
2023-03-11T10:04:52.119Z,6.85
2023-03-11T10:05:52.261Z,6.94
2023-03-11T10:06:52.099Z,6.99
2023-03-11T10:07:56.924Z,6.95
2023-03-11T10:08:52.232Z,6.75
2023-03-11T10:09:52.108Z,6.66
2023-03-11T10:10:52.222Z,6.76
2023-03-11T10:11:52.131Z,6.86
2023-03-11T10:12:52.100Z,6.96
2023-03-11T10:13:52.534Z,7.13
2023-03-11T10:14:52.236Z,7.37
2023-03-11T10:15:52.110Z,7.73
2023-03-11T10:16:52.100Z,8.07
2023-03-11T10:17:52.106Z,8.36
2023-03-11T10:18:54.602Z,8.63
2023-03-11T10:19:52.114Z,8.96
2023-03-11T10:20:52.230Z,9.37
2023-03-11T10:21:52.101Z,9.68
2023-03-11T10:22:52.497Z,9.57
2023-03-11T10:23:52.156Z,9.01
2023-03-11T10:24:52.107Z,8.52
2023-03-11T10:25:52.239Z,8.1
2023-03-11T10:26:52.107Z,7.82
2023-03-11T10:27:52.123Z,7.61
2023-03-11T10:28:52.647Z,7.5
2023-03-11T10:29:54.478Z,7.55
2023-03-11T10:30:52.133Z,7.66
2023-03-11T10:31:52.129Z,7.58
2023-03-11T10:32:52.223Z,7.44
2023-03-11T10:33:52.191Z,7.1
2023-03-11T10:34:52.112Z,6.99
2023-03-11T10:35:52.198Z,6.91
2023-03-11T10:36:52.133Z,7
2023-03-11T10:37:52.584Z,7.19
2023-03-11T10:38:52.520Z,7.32
2023-03-11T10:39:52.255Z,7.55
2023-03-11T10:40:54.489Z,7.82
2023-03-11T10:41:52.114Z,7.83
2023-03-11T10:42:52.112Z,7.75
2023-03-11T10:43:52.233Z,7.95
2023-03-11T10:44:52.689Z,8.37
2023-03-11T10:45:52.149Z,8.68
2023-03-11T10:46:52.125Z,9.22
2023-03-11T10:47:52.101Z,9.83
2023-03-11T10:48:52.503Z,10.15
2023-03-11T10:49:52.110Z,10.43
2023-03-11T10:50:52.120Z,10.72
2023-03-11T10:51:54.424Z,10.96
2023-03-11T10:52:52.387Z,11.05
2023-03-11T10:53:52.534Z,10.44
2023-03-11T10:54:52.091Z,9.94
2023-03-11T10:55:52.114Z,9.56
2023-03-11T10:56:52.254Z,9.34
2023-03-11T10:57:52.122Z,9.01
2023-03-11T10:58:52.281Z,8.68
2023-03-11T10:59:52.137Z,8.29
2023-03-11T11:00:52.162Z,8.29
2023-03-11T11:01:52.125Z,8.05
2023-03-11T11:02:54.494Z,7.84
2023-03-11T11:03:52.290Z,7.7
2023-03-11T11:04:52.114Z,7.69
2023-03-11T11:05:52.420Z,7.8
2023-03-11T11:06:52.116Z,7.95
2023-03-11T11:07:52.525Z,8.08
2023-03-11T11:08:52.540Z,8.15
2023-03-11T11:09:52.124Z,8.22
2023-03-11T11:10:52.131Z,8.31
2023-03-11T11:11:52.144Z,8.35
2023-03-11T11:12:52.161Z,8.33
2023-03-11T11:13:54.580Z,8.23
2023-03-11T11:14:52.113Z,8.17
2023-03-11T11:15:52.106Z,8.19
2023-03-11T11:16:52.146Z,8.07
2023-03-11T11:17:52.123Z,7.74
2023-03-11T11:18:52.145Z,7.38
2023-03-11T11:19:52.129Z,7.06
2023-03-11T11:20:52.129Z,6.97
2023-03-11T11:21:52.362Z,7.14
2023-03-11T11:22:52.566Z,7.33
2023-03-11T11:23:53.945Z,7.36
2023-03-11T11:24:54.527Z,7.39
2023-03-11T11:25:52.202Z,7.5
2023-03-11T11:26:52.124Z,7.58
2023-03-11T11:27:52.124Z,7.51
2023-03-11T11:28:52.207Z,7.53
2023-03-11T11:29:52.133Z,7.38
2023-03-11T11:30:52.131Z,7.29
2023-03-11T11:31:52.118Z,7.17
2023-03-11T11:32:52.248Z,7.14
2023-03-11T11:33:52.527Z,7.27
2023-03-11T11:34:52.127Z,7.47
2023-03-11T11:35:54.636Z,7.65
2023-03-11T11:36:52.096Z,7.71
2023-03-11T11:37:52.161Z,7.61
2023-03-11T11:38:52.211Z,7.58
2023-03-11T11:39:52.256Z,7.68
2023-03-11T11:40:52.106Z,7.81
2023-03-11T11:41:52.076Z,7.92
2023-03-11T11:42:52.240Z,7.99
2023-03-11T11:43:52.205Z,7.85
2023-03-11T11:44:52.212Z,7.8
2023-03-11T11:45:52.130Z,7.78
2023-03-11T11:46:54.594Z,7.85
2023-03-11T11:47:52.117Z,7.99
2023-03-11T11:48:52.143Z,8.02
2023-03-11T11:49:52.130Z,7.97
2023-03-11T11:50:52.103Z,8.02
2023-03-11T11:51:52.138Z,7.97
2023-03-11T11:52:52.253Z,8
2023-03-11T11:53:52.162Z,7.99
2023-03-11T11:54:52.120Z,8.01
2023-03-11T11:55:52.108Z,8.06
2023-03-11T11:56:52.105Z,8.17
2023-03-11T11:57:54.486Z,8.15
2023-03-11T11:58:52.238Z,8.05
2023-03-11T11:59:52.121Z,8.01
2023-03-11T12:00:52.115Z,8.03
2023-03-11T12:01:52.117Z,8.13
2023-03-11T12:02:52.119Z,7.99
2023-03-11T12:03:52.207Z,7.91
2023-03-11T12:04:52.258Z,7.86
2023-03-11T12:05:52.210Z,7.83
2023-03-11T12:06:52.121Z,7.69
2023-03-11T12:07:52.239Z,7.67
2023-03-11T12:08:54.586Z,7.86
2023-03-11T12:09:52.124Z,8.08
2023-03-11T12:10:52.110Z,8.25
2023-03-11T12:11:52.113Z,8.4
2023-03-11T12:12:52.118Z,8.6
2023-03-11T12:13:52.527Z,8.83
2023-03-11T12:14:52.099Z,9.01
2023-03-11T12:15:52.134Z,9.07
2023-03-11T12:16:52.120Z,9.06
2023-03-11T12:17:52.127Z,9.1
2023-03-11T12:18:52.518Z,9.1
2023-03-11T12:19:54.498Z,9.03
2023-03-11T12:20:52.225Z,9.01
2023-03-11T12:21:52.310Z,8.82
2023-03-11T12:22:52.133Z,8.49
2023-03-11T12:23:54.971Z,8.41
2023-03-11T12:24:52.149Z,8.17
2023-03-11T12:25:52.136Z,8.1
2023-03-11T12:26:52.134Z,8.31
2023-03-11T12:27:52.113Z,8.51
2023-03-11T12:28:52.223Z,8.57
2023-03-11T12:29:52.125Z,8.61
2023-03-11T12:30:54.651Z,8.72
2023-03-11T12:31:52.108Z,8.5
2023-03-11T12:32:52.217Z,8.5
2023-03-11T12:33:52.526Z,8.49
2023-03-11T12:34:52.124Z,8.66
2023-03-11T12:35:52.116Z,8.86
2023-03-11T12:36:52.117Z,8.94
2023-03-11T12:37:52.529Z,8.92
2023-03-11T12:38:52.264Z,8.88
2023-03-11T12:39:52.131Z,8.74
2023-03-11T12:40:52.134Z,8.69
2023-03-11T12:41:54.540Z,8.72
2023-03-11T12:42:52.124Z,8.81
2023-03-11T12:43:52.557Z,8.79
2023-03-11T12:44:52.125Z,8.79
2023-03-11T12:45:52.140Z,8.96
2023-03-11T12:46:52.187Z,8.74
2023-03-11T12:47:52.075Z,8.7
2023-03-11T12:48:52.520Z,8.82
2023-03-11T12:49:52.136Z,8.87
2023-03-11T12:50:52.104Z,8.82
2023-03-11T12:51:52.114Z,8.91
2023-03-11T12:52:56.986Z,9.24
2023-03-11T12:53:52.518Z,9.54
2023-03-11T12:54:52.095Z,9.7
2023-03-11T12:55:52.128Z,9.58
2023-03-11T12:56:52.125Z,9.44
2023-03-11T12:57:52.125Z,9.42
2023-03-11T12:58:52.184Z,9.52
2023-03-11T12:59:52.127Z,9.6
2023-03-11T13:00:52.115Z,9.66
2023-03-11T13:01:52.144Z,9.68
2023-03-11T13:02:52.151Z,9.87
2023-03-11T13:03:54.877Z,10.09
2023-03-11T13:04:52.126Z,10.21
2023-03-11T13:05:52.115Z,10.23
2023-03-11T13:06:52.279Z,9.82
2023-03-11T13:07:52.537Z,9.52
2023-03-11T13:08:52.167Z,9.41
2023-03-11T13:09:52.117Z,9.37
2023-03-11T13:10:52.104Z,9.36
2023-03-11T13:11:52.119Z,9.22
2023-03-11T13:12:52.167Z,8.87
2023-03-11T13:13:52.505Z,8.69
2023-03-11T13:14:54.571Z,8.55
2023-03-11T13:15:52.167Z,8.51
2023-03-11T13:16:52.190Z,8.56
2023-03-11T13:17:52.118Z,8.58
2023-03-11T13:18:52.234Z,8.54
2023-03-11T13:19:52.099Z,8.57
2023-03-11T13:20:52.135Z,8.46
2023-03-11T13:21:52.275Z,8.34